sensor_id;sensor_type;location;lat;lon;timestamp;pressure;altitude;pressure_sealevel;temperature;humidity
65384;BME280;51986;52.788;41.368;2023-07-13T00:02:20;98645.72;;;14.11;61.39
65384;BME280;51986;52.788;41.368;2023-07-13T00:04:47;98634.28;;;14.14;61.40
65384;BME280;51986;52.788;41.368;2023-07-13T00:07:14;98640.09;;;14.09;61.69
65384;BME280;51986;52.788;41.368;2023-07-13T00:09:41;98644.97;;;14.11;61.74
65384;BME280;51986;52.788;41.368;2023-07-13T00:12:35;98641.25;;;14.21;61.62
65384;BME280;51986;52.788;41.368;2023-07-13T00:15:06;98646.63;;;14.30;61.32
65384;BME280;51986;52.788;41.368;2023-07-13T00:17:34;98665.66;;;14.16;61.61
65384;BME280;51986;52.788;41.368;2023-07-13T00:20:01;98638.31;;;14.06;61.64
65384;BME280;51986;52.788;41.368;2023-07-13T00:22:28;98643.31;;;14.17;61.64
65384;BME280;51986;52.788;41.368;2023-07-13T00:24:55;98649.75;;;14.16;61.46
65384;BME280;51986;52.788;41.368;2023-07-13T00:27:24;98662.59;;;14.18;61.68
65384;BME280;51986;52.788;41.368;2023-07-13T00:29:51;98644.03;;;14.18;62.12
65384;BME280;51986;52.788;41.368;2023-07-13T00:32:18;98671.50;;;14.11;62.16
65384;BME280;51986;52.788;41.368;2023-07-13T00:34:45;98674.28;;;14.07;62.17
65384;BME280;51986;52.788;41.368;2023-07-13T00:37:13;98661.56;;;14.02;62.30
65384;BME280;51986;52.788;41.368;2023-07-13T00:39:40;98657.09;;;14.12;62.09
65384;BME280;51986;52.788;41.368;2023-07-13T00:42:07;98654.84;;;14.23;61.63
65384;BME280;51986;52.788;41.368;2023-07-13T00:44:34;98673.41;;;14.23;61.90
65384;BME280;51986;52.788;41.368;2023-07-13T00:47:01;98663.41;;;14.27;61.98
65384;BME280;51986;52.788;41.368;2023-07-13T00:49:30;98662.16;;;14.19;61.99
65384;BME280;51986;52.788;41.368;2023-07-13T00:52:07;98657.16;;;14.21;62.09
65384;BME280;51986;52.788;41.368;2023-07-13T00:54:44;98690.50;;;14.09;62.24
65384;BME280;51986;52.788;41.368;2023-07-13T00:57:19;98672.38;;;14.08;62.05
65384;BME280;51986;52.788;41.368;2023-07-13T00:59:53;98664.00;;;13.97;62.03
65384;BME280;51986;52.788;41.368;2023-07-13T01:02:24;98655.31;;;13.96;61.81
65384;BME280;51986;52.788;41.368;2023-07-13T01:04:52;98673.88;;;13.96;62.54
65384;BME280;51986;52.788;41.368;2023-07-13T01:07:19;98639.50;;;13.71;63.45
65384;BME280;51986;52.788;41.368;2023-07-13T01:09:46;98656.28;;;14.02;62.41
65384;BME280;51986;52.788;41.368;2023-07-13T01:12:13;98695.59;;;14.17;62.14
65384;BME280;51986;52.788;41.368;2023-07-13T01:14:40;98671.81;;;14.13;62.13
65384;BME280;51986;52.788;41.368;2023-07-13T01:17:10;98665.16;;;14.08;62.13
65384;BME280;51986;52.788;41.368;2023-07-13T01:19:45;98675.97;;;14.14;62.16
65384;BME280;51986;52.788;41.368;2023-07-13T01:22:14;98665.06;;;13.99;62.64
65384;BME280;51986;52.788;41.368;2023-07-13T01:24:43;98675.44;;;14.06;62.28
65384;BME280;51986;52.788;41.368;2023-07-13T01:27:13;98657.31;;;14.18;62.17
65384;BME280;51986;52.788;41.368;2023-07-13T01:29:43;98670.03;;;14.10;62.28
65384;BME280;51986;52.788;41.368;2023-07-13T01:32:14;98677.63;;;14.21;62.08
65384;BME280;51986;52.788;41.368;2023-07-13T01:34:41;98667.69;;;14.12;61.95
65384;BME280;51986;52.788;41.368;2023-07-13T01:37:10;98684.13;;;14.20;61.78
65384;BME280;51986;52.788;41.368;2023-07-13T01:39:37;98675.13;;;14.17;62.53
65384;BME280;51986;52.788;41.368;2023-07-13T01:42:04;98647.44;;;14.05;62.18
65384;BME280;51986;52.788;41.368;2023-07-13T01:44:31;98661.53;;;14.15;62.18
65384;BME280;51986;52.788;41.368;2023-07-13T01:46:58;98663.63;;;14.20;62.20
65384;BME280;51986;52.788;41.368;2023-07-13T01:49:25;98652.91;;;14.24;62.04
65384;BME280;51986;52.788;41.368;2023-07-13T01:51:52;98645.50;;;14.19;62.67
65384;BME280;51986;52.788;41.368;2023-07-13T01:54:19;98677.84;;;14.26;62.36
65384;BME280;51986;52.788;41.368;2023-07-13T01:56:46;98656.31;;;14.24;62.42
65384;BME280;51986;52.788;41.368;2023-07-13T01:59:13;98647.88;;;14.17;62.52
65384;BME280;51986;52.788;41.368;2023-07-13T02:01:40;98676.22;;;14.29;62.36
65384;BME280;51986;52.788;41.368;2023-07-13T02:04:07;98671.63;;;14.42;61.79
65384;BME280;51986;52.788;41.368;2023-07-13T02:06:34;98659.88;;;14.30;62.44
65384;BME280;51986;52.788;41.368;2023-07-13T02:09:01;98670.97;;;14.16;62.96
65384;BME280;51986;52.788;41.368;2023-07-13T02:11:28;98680.75;;;14.41;62.27
65384;BME280;51986;52.788;41.368;2023-07-13T02:13:55;98678.97;;;14.38;62.32
65384;BME280;51986;52.788;41.368;2023-07-13T02:16:22;98683.47;;;14.28;62.89
65384;BME280;51986;52.788;41.368;2023-07-13T02:18:49;98664.09;;;14.19;63.81
65384;BME280;51986;52.788;41.368;2023-07-13T02:21:16;98659.53;;;14.41;62.90
65384;BME280;51986;52.788;41.368;2023-07-13T02:23:44;98655.81;;;14.38;62.51
65384;BME280;51986;52.788;41.368;2023-07-13T02:26:10;98668.97;;;14.42;62.65
65384;BME280;51986;52.788;41.368;2023-07-13T02:28:38;98686.13;;;14.50;62.59
65384;BME280;51986;52.788;41.368;2023-07-13T02:31:07;98674.50;;;14.57;62.79
65384;BME280;51986;52.788;41.368;2023-07-13T02:33:34;98660.19;;;14.54;62.28
65384;BME280;51986;52.788;41.368;2023-07-13T02:36:01;98646.56;;;14.65;62.68
65384;BME280;51986;52.788;41.368;2023-07-13T02:38:28;98665.47;;;14.76;62.68
65384;BME280;51986;52.788;41.368;2023-07-13T02:40:55;98665.00;;;14.69;62.02
65384;BME280;51986;52.788;41.368;2023-07-13T02:43:22;98670.91;;;14.73;62.07
65384;BME280;51986;52.788;41.368;2023-07-13T02:45:49;98659.72;;;14.78;62.29
65384;BME280;51986;52.788;41.368;2023-07-13T02:48:17;98657.91;;;14.97;61.47
65384;BME280;51986;52.788;41.368;2023-07-13T02:50:44;98656.50;;;14.83;61.47
65384;BME280;51986;52.788;41.368;2023-07-13T02:53:11;98693.22;;;15.06;60.94
65384;BME280;51986;52.788;41.368;2023-07-13T02:55:39;98652.63;;;15.06;61.20
65384;BME280;51986;52.788;41.368;2023-07-13T02:58:06;98696.53;;;15.20;61.10
65384;BME280;51986;52.788;41.368;2023-07-13T03:00:33;98676.50;;;15.28;60.66
65384;BME280;51986;52.788;41.368;2023-07-13T03:03:01;98691.22;;;15.20;60.99
65384;BME280;51986;52.788;41.368;2023-07-13T03:05:28;98680.19;;;15.30;60.79
65384;BME280;51986;52.788;41.368;2023-07-13T03:07:56;98681.28;;;15.42;59.77
65384;BME280;51986;52.788;41.368;2023-07-13T03:10:23;98688.13;;;15.61;59.65
65384;BME280;51986;52.788;41.368;2023-07-13T03:12:51;98707.66;;;15.86;58.88
65384;BME280;51986;52.788;41.368;2023-07-13T03:15:25;98670.88;;;16.03;57.67
65384;BME280;51986;52.788;41.368;2023-07-13T03:17:54;98695.00;;;18.20;52.83
65384;BME280;51986;52.788;41.368;2023-07-13T03:20:21;98684.69;;;19.72;48.11
65384;BME280;51986;52.788;41.368;2023-07-13T03:22:48;98682.16;;;21.13;44.23
65384;BME280;51986;52.788;41.368;2023-07-13T03:25:17;98668.09;;;21.78;42.41
65384;BME280;51986;52.788;41.368;2023-07-13T03:27:44;98669.75;;;22.86;39.98
65384;BME280;51986;52.788;41.368;2023-07-13T03:30:11;98667.75;;;23.89;37.77
65384;BME280;51986;52.788;41.368;2023-07-13T03:32:39;98672.63;;;24.43;37.00
65384;BME280;51986;52.788;41.368;2023-07-13T03:35:08;98656.25;;;24.96;35.42
65384;BME280;51986;52.788;41.368;2023-07-13T03:37:36;98681.28;;;25.64;33.66
65384;BME280;51986;52.788;41.368;2023-07-13T03:40:03;98680.78;;;26.03;33.88
65384;BME280;51986;52.788;41.368;2023-07-13T03:42:31;98663.91;;;25.16;34.56
65384;BME280;51986;52.788;41.368;2023-07-13T03:44:58;98658.81;;;25.94;33.13
65384;BME280;51986;52.788;41.368;2023-07-13T03:47:25;98677.84;;;26.39;32.50
65384;BME280;51986;52.788;41.368;2023-07-13T03:49:52;98672.50;;;26.66;32.11
65384;BME280;51986;52.788;41.368;2023-07-13T03:52:19;98694.13;;;26.98;31.13
65384;BME280;51986;52.788;41.368;2023-07-13T03:54:47;98652.16;;;25.95;32.52
65384;BME280;51986;52.788;41.368;2023-07-13T03:57:15;98708.31;;;25.64;33.44
65384;BME280;51986;52.788;41.368;2023-07-13T03:59:42;98692.03;;;27.04;31.01
65384;BME280;51986;52.788;41.368;2023-07-13T04:02:09;98680.00;;;27.45;30.73
65384;BME280;51986;52.788;41.368;2023-07-13T04:04:37;98670.91;;;27.69;30.36
65384;BME280;51986;52.788;41.368;2023-07-13T04:07:05;98687.25;;;28.10;29.75
65384;BME280;51986;52.788;41.368;2023-07-13T04:09:32;98675.06;;;27.56;30.25
65384;BME280;51986;52.788;41.368;2023-07-13T04:11:59;98657.13;;;28.01;29.43
65384;BME280;51986;52.788;41.368;2023-07-13T04:14:27;98698.19;;;28.18;29.21
65384;BME280;51986;52.788;41.368;2023-07-13T04:16:54;98666.75;;;27.28;30.31
65384;BME280;51986;52.788;41.368;2023-07-13T04:19:21;98678.09;;;27.66;30.10
65384;BME280;51986;52.788;41.368;2023-07-13T04:21:48;98664.63;;;26.35;31.98
65384;BME280;51986;52.788;41.368;2023-07-13T04:24:15;98675.50;;;26.62;31.63
65384;BME280;51986;52.788;41.368;2023-07-13T04:26:42;98683.50;;;27.13;30.73
65384;BME280;51986;52.788;41.368;2023-07-13T04:29:09;98691.25;;;26.77;31.36
65384;BME280;51986;52.788;41.368;2023-07-13T04:31:36;98712.84;;;26.31;32.17
65384;BME280;51986;52.788;41.368;2023-07-13T04:34:03;98690.38;;;26.55;32.06
65384;BME280;51986;52.788;41.368;2023-07-13T04:36:31;98686.53;;;26.96;30.86
65384;BME280;51986;52.788;41.368;2023-07-13T04:38:58;98683.50;;;26.86;31.42
65384;BME280;51986;52.788;41.368;2023-07-13T04:41:25;98679.97;;;27.18;31.56
65384;BME280;51986;52.788;41.368;2023-07-13T04:43:52;98688.91;;;27.00;30.98
65384;BME280;51986;52.788;41.368;2023-07-13T04:46:22;98730.16;;;27.32;31.32
65384;BME280;51986;52.788;41.368;2023-07-13T04:48:49;98683.72;;;27.55;30.36
65384;BME280;51986;52.788;41.368;2023-07-13T04:51:16;98693.53;;;27.45;30.35
65384;BME280;51986;52.788;41.368;2023-07-13T04:53:43;98702.28;;;27.64;30.37
65384;BME280;51986;52.788;41.368;2023-07-13T04:56:11;98690.84;;;27.45;30.12
65384;BME280;51986;52.788;41.368;2023-07-13T04:58:38;98673.22;;;27.11;30.66
65384;BME280;51986;52.788;41.368;2023-07-13T05:01:06;98691.03;;;27.47;30.69
65384;BME280;51986;52.788;41.368;2023-07-13T05:03:33;98658.72;;;27.22;30.89
65384;BME280;51986;52.788;41.368;2023-07-13T05:06:04;98684.81;;;26.16;31.78
65384;BME280;51986;52.788;41.368;2023-07-13T05:08:31;98661.34;;;25.48;33.06
65384;BME280;51986;52.788;41.368;2023-07-13T05:11:02;98700.28;;;25.09;33.94
65384;BME280;51986;52.788;41.368;2023-07-13T05:13:30;98672.31;;;25.31;34.19
65384;BME280;51986;52.788;41.368;2023-07-13T05:16:03;98690.66;;;25.82;32.92
65384;BME280;51986;52.788;41.368;2023-07-13T05:18:31;98699.47;;;25.39;33.16
65384;BME280;51986;52.788;41.368;2023-07-13T05:21:04;98684.44;;;24.65;34.72
65384;BME280;51986;52.788;41.368;2023-07-13T05:23:33;98699.41;;;24.30;34.75
65384;BME280;51986;52.788;41.368;2023-07-13T05:26:01;98690.72;;;23.26;36.80
65384;BME280;51986;52.788;41.368;2023-07-13T05:28:31;98695.09;;;23.41;36.60
65384;BME280;51986;52.788;41.368;2023-07-13T05:30:58;98700.75;;;23.37;36.31
65384;BME280;51986;52.788;41.368;2023-07-13T05:33:26;98678.56;;;22.75;37.30
65384;BME280;51986;52.788;41.368;2023-07-13T05:35:53;98710.56;;;22.78;37.27
65384;BME280;51986;52.788;41.368;2023-07-13T05:38:20;98678.56;;;22.80;38.44
65384;BME280;51986;52.788;41.368;2023-07-13T05:40:47;98719.84;;;22.72;37.95
65384;BME280;51986;52.788;41.368;2023-07-13T05:43:15;98710.78;;;22.69;37.92
65384;BME280;51986;52.788;41.368;2023-07-13T05:45:42;98706.09;;;22.30;38.15
65384;BME280;51986;52.788;41.368;2023-07-13T05:48:09;98707.88;;;22.78;38.12
65384;BME280;51986;52.788;41.368;2023-07-13T05:50:36;98686.09;;;22.43;39.19
65384;BME280;51986;52.788;41.368;2023-07-13T05:53:03;98698.31;;;22.49;38.80
65384;BME280;51986;52.788;41.368;2023-07-13T05:55:31;98710.53;;;22.45;39.04
65384;BME280;51986;52.788;41.368;2023-07-13T05:57:58;98693.38;;;22.14;37.78
65384;BME280;51986;52.788;41.368;2023-07-13T06:00:26;98723.09;;;21.99;38.62
65384;BME280;51986;52.788;41.368;2023-07-13T06:02:53;98694.41;;;22.39;39.07
65384;BME280;51986;52.788;41.368;2023-07-13T06:05:20;98675.78;;;22.08;38.73
65384;BME280;51986;52.788;41.368;2023-07-13T06:07:47;98687.56;;;22.27;38.56
65384;BME280;51986;52.788;41.368;2023-07-13T06:10:14;98687.56;;;22.44;39.09
65384;BME280;51986;52.788;41.368;2023-07-13T06:12:41;98698.31;;;22.38;39.88
65384;BME280;51986;52.788;41.368;2023-07-13T06:15:08;98703.47;;;22.53;38.75
65384;BME280;51986;52.788;41.368;2023-07-13T06:17:35;98718.09;;;22.35;38.28
65384;BME280;51986;52.788;41.368;2023-07-13T06:20:03;98717.84;;;22.22;37.64
65384;BME280;51986;52.788;41.368;2023-07-13T06:22:30;98722.72;;;22.29;37.59
65384;BME280;51986;52.788;41.368;2023-07-13T06:24:57;98721.53;;;22.47;37.54
65384;BME280;51986;52.788;41.368;2023-07-13T06:27:24;98714.16;;;22.30;37.59
65384;BME280;51986;52.788;41.368;2023-07-13T06:29:52;98701.41;;;22.03;37.65
65384;BME280;51986;52.788;41.368;2023-07-13T06:32:19;98671.16;;;22.14;38.33
65384;BME280;51986;52.788;41.368;2023-07-13T06:34:46;98700.50;;;22.45;38.22
65384;BME280;51986;52.788;41.368;2023-07-13T06:37:13;98673.13;;;22.36;38.14
65384;BME280;51986;52.788;41.368;2023-07-13T06:39:40;98701.47;;;22.25;36.30
65384;BME280;51986;52.788;41.368;2023-07-13T06:42:07;98686.34;;;22.34;36.94
65384;BME280;51986;52.788;41.368;2023-07-13T06:44:34;98709.56;;;22.59;36.63
65384;BME280;51986;52.788;41.368;2023-07-13T06:47:01;98688.06;;;22.59;37.03
65384;BME280;51986;52.788;41.368;2023-07-13T06:49:28;98693.47;;;22.87;36.71
65384;BME280;51986;52.788;41.368;2023-07-13T06:51:55;98723.31;;;22.95;38.66
65384;BME280;51986;52.788;41.368;2023-07-13T06:54:22;98690.78;;;22.70;37.75
65384;BME280;51986;52.788;41.368;2023-07-13T06:56:49;98713.19;;;22.22;38.00
65384;BME280;51986;52.788;41.368;2023-07-13T06:59:16;98720.19;;;22.03;37.58
65384;BME280;51986;52.788;41.368;2023-07-13T07:01:43;98734.28;;;22.74;36.14
65384;BME280;51986;52.788;41.368;2023-07-13T07:04:10;98701.28;;;22.46;36.17
65384;BME280;51986;52.788;41.368;2023-07-13T07:06:37;98700.16;;;22.04;37.51
65384;BME280;51986;52.788;41.368;2023-07-13T07:09:04;98644.22;;;21.86;37.46
65384;BME280;51986;52.788;41.368;2023-07-13T07:11:31;98725.69;;;22.48;36.98
65384;BME280;51986;52.788;41.368;2023-07-13T07:13:58;98713.25;;;22.56;37.54
65384;BME280;51986;52.788;41.368;2023-07-13T07:16:25;98710.31;;;22.65;36.41
65384;BME280;51986;52.788;41.368;2023-07-13T07:18:52;98712.75;;;22.63;36.98
65384;BME280;51986;52.788;41.368;2023-07-13T07:21:19;98731.09;;;23.32;36.39
65384;BME280;51986;52.788;41.368;2023-07-13T07:23:46;98715.88;;;23.40;35.54
65384;BME280;51986;52.788;41.368;2023-07-13T07:26:13;98725.72;;;23.32;35.79
65384;BME280;51986;52.788;41.368;2023-07-13T07:28:41;98719.13;;;23.16;35.30
65384;BME280;51986;52.788;41.368;2023-07-13T07:31:11;98693.47;;;22.98;35.15
65384;BME280;51986;52.788;41.368;2023-07-13T07:33:41;98759.00;;;23.06;35.49
65384;BME280;51986;52.788;41.368;2023-07-13T07:36:08;98710.31;;;23.32;35.36
65384;BME280;51986;52.788;41.368;2023-07-13T07:38:38;98709.56;;;23.21;36.22
65384;BME280;51986;52.788;41.368;2023-07-13T07:41:05;98710.53;;;23.35;35.64
65384;BME280;51986;52.788;41.368;2023-07-13T07:43:35;98724.41;;;23.72;34.58
65384;BME280;51986;52.788;41.368;2023-07-13T07:46:03;98736.59;;;23.79;34.08
65384;BME280;51986;52.788;41.368;2023-07-13T07:48:30;98723.69;;;23.66;34.92
65384;BME280;51986;52.788;41.368;2023-07-13T07:50:58;98723.28;;;23.23;34.49
65384;BME280;51986;52.788;41.368;2023-07-13T07:53:25;98742.75;;;23.74;33.90
65384;BME280;51986;52.788;41.368;2023-07-13T07:55:51;98724.97;;;23.31;34.21
65384;BME280;51986;52.788;41.368;2023-07-13T07:58:21;98719.75;;;23.67;33.66
65384;BME280;51986;52.788;41.368;2023-07-13T08:00:51;98733.97;;;23.45;34.05
65384;BME280;51986;52.788;41.368;2023-07-13T08:03:21;98730.81;;;23.41;35.45
65384;BME280;51986;52.788;41.368;2023-07-13T08:05:54;98745.97;;;23.44;35.43
65384;BME280;51986;52.788;41.368;2023-07-13T08:08:24;98713.28;;;22.95;36.33
65384;BME280;51986;52.788;41.368;2023-07-13T08:10:51;98714.94;;;23.38;36.28
65384;BME280;51986;52.788;41.368;2023-07-13T08:13:23;98730.22;;;23.88;35.49
65384;BME280;51986;52.788;41.368;2023-07-13T08:15:50;98738.56;;;23.78;35.12
65384;BME280;51986;52.788;41.368;2023-07-13T08:18:17;98708.94;;;23.78;33.97
65384;BME280;51986;52.788;41.368;2023-07-13T08:20:44;98727.84;;;23.67;34.06
65384;BME280;51986;52.788;41.368;2023-07-13T08:23:11;98718.78;;;23.53;34.67
65384;BME280;51986;52.788;41.368;2023-07-13T08:25:38;98725.88;;;24.26;33.73
65384;BME280;51986;52.788;41.368;2023-07-13T08:28:05;98724.97;;;24.06;32.18
65384;BME280;51986;52.788;41.368;2023-07-13T08:30:32;98744.09;;;24.03;33.17
65384;BME280;51986;52.788;41.368;2023-07-13T08:32:59;98722.97;;;23.66;33.18
65384;BME280;51986;52.788;41.368;2023-07-13T08:35:26;98749.06;;;23.88;34.01
65384;BME280;51986;52.788;41.368;2023-07-13T08:37:53;98741.06;;;23.65;33.44
65384;BME280;51986;52.788;41.368;2023-07-13T08:40:25;98713.72;;;23.22;32.26
65384;BME280;51986;52.788;41.368;2023-07-13T08:42:58;98736.72;;;22.67;32.95
65384;BME280;51986;52.788;41.368;2023-07-13T08:48:16;98761.06;;;22.24;35.27
65384;BME280;51986;52.788;41.368;2023-07-13T08:53:40;98772.69;;;22.04;34.91
65384;BME280;51986;52.788;41.368;2023-07-13T08:56:28;98749.09;;;21.71;35.56
65384;BME280;51986;52.788;41.368;2023-07-13T08:59:01;98764.78;;;21.84;35.79
65384;BME280;51986;52.788;41.368;2023-07-13T09:01:58;98790.81;;;21.72;36.94
65384;BME280;51986;52.788;41.368;2023-07-13T09:04:49;98784.88;;;21.57;37.60
65384;BME280;51986;52.788;41.368;2023-07-13T09:15:37;98780.09;;;20.77;39.49
65384;BME280;51986;52.788;41.368;2023-07-13T09:20:50;98773.09;;;20.59;39.77
65384;BME280;51986;52.788;41.368;2023-07-13T09:23:22;98789.09;;;20.53;40.20
65384;BME280;51986;52.788;41.368;2023-07-13T09:25:54;98790.81;;;20.31;40.87
65384;BME280;51986;52.788;41.368;2023-07-13T09:28:26;98783.56;;;20.16;41.19
65384;BME280;51986;52.788;41.368;2023-07-13T09:31:19;98786.19;;;20.31;41.37
65384;BME280;51986;52.788;41.368;2023-07-13T09:33:47;98778.91;;;20.11;41.52
65384;BME280;51986;52.788;41.368;2023-07-13T09:36:30;98784.44;;;20.08;41.86
65384;BME280;51986;52.788;41.368;2023-07-13T09:41:37;98774.66;;;19.69;42.27
65384;BME280;51986;52.788;41.368;2023-07-13T09:44:13;98778.56;;;19.68;42.61
65384;BME280;51986;52.788;41.368;2023-07-13T09:46:54;98768.66;;;19.74;42.18
65384;BME280;51986;52.788;41.368;2023-07-13T09:49:27;98784.16;;;19.85;41.52
65384;BME280;51986;52.788;41.368;2023-07-13T09:52:06;98768.22;;;19.61;40.66
65384;BME280;51986;52.788;41.368;2023-07-13T09:54:35;98768.22;;;19.61;40.76
65384;BME280;51986;52.788;41.368;2023-07-13T09:57:14;98774.00;;;19.74;41.30
65384;BME280;51986;52.788;41.368;2023-07-13T09:59:48;98782.63;;;20.19;41.19
65384;BME280;51986;52.788;41.368;2023-07-13T10:02:35;98783.97;;;20.09;41.44
65384;BME280;51986;52.788;41.368;2023-07-13T10:05:11;98775.16;;;19.68;41.67
65384;BME280;51986;52.788;41.368;2023-07-13T10:07:41;98779.00;;;19.67;41.49
65384;BME280;51986;52.788;41.368;2023-07-13T10:10:20;98762.34;;;19.57;42.43
65384;BME280;51986;52.788;41.368;2023-07-13T10:12:49;98762.81;;;19.56;42.96
65384;BME280;51986;52.788;41.368;2023-07-13T10:15:22;98794.06;;;19.64;42.52
65384;BME280;51986;52.788;41.368;2023-07-13T10:17:52;98765.63;;;19.32;42.77
65384;BME280;51986;52.788;41.368;2023-07-13T10:20:21;98773.53;;;19.41;43.20
65384;BME280;51986;52.788;41.368;2023-07-13T10:23:01;98782.56;;;19.58;42.68
65384;BME280;51986;52.788;41.368;2023-07-13T10:25:35;98785.84;;;19.53;43.58
65384;BME280;51986;52.788;41.368;2023-07-13T10:28:35;98765.38;;;19.65;43.65
65384;BME280;51986;52.788;41.368;2023-07-13T10:31:06;98773.19;;;19.68;43.03
65384;BME280;51986;52.788;41.368;2023-07-13T10:33:38;98774.38;;;19.67;42.64
65384;BME280;51986;52.788;41.368;2023-07-13T10:36:20;98745.03;;;19.88;42.38
65384;BME280;51986;52.788;41.368;2023-07-13T10:38:51;98743.34;;;19.90;42.68
65384;BME280;51986;52.788;41.368;2023-07-13T10:41:21;98751.63;;;20.33;41.65
65384;BME280;51986;52.788;41.368;2023-07-13T10:43:55;98760.25;;;20.43;41.64
65384;BME280;51986;52.788;41.368;2023-07-13T10:46:25;98789.97;;;20.65;41.01
65384;BME280;51986;52.788;41.368;2023-07-13T10:49:01;98765.25;;;20.56;39.88
65384;BME280;51986;52.788;41.368;2023-07-13T10:51:29;98767.84;;;20.70;41.15
65384;BME280;51986;52.788;41.368;2023-07-13T10:54:20;98780.66;;;21.13;39.74
65384;BME280;51986;52.788;41.368;2023-07-13T10:57:06;98755.47;;;21.04;39.92
65384;BME280;51986;52.788;41.368;2023-07-13T10:59:34;98778.78;;;21.56;38.64
65384;BME280;51986;52.788;41.368;2023-07-13T11:04:52;98771.81;;;22.35;38.25
65384;BME280;51986;52.788;41.368;2023-07-13T11:07:29;98755.19;;;22.25;38.03
65384;BME280;51986;52.788;41.368;2023-07-13T11:09:59;98757.94;;;22.53;37.57
65384;BME280;51986;52.788;41.368;2023-07-13T11:12:48;98749.41;;;22.77;36.45
65384;BME280;51986;52.788;41.368;2023-07-13T11:15:27;98734.28;;;22.97;35.98
65384;BME280;51986;52.788;41.368;2023-07-13T11:17:55;98731.38;;;22.95;36.55
65384;BME280;51986;52.788;41.368;2023-07-13T11:20:31;98736.25;;;23.02;35.89
65384;BME280;51986;52.788;41.368;2023-07-13T11:23:09;98743.09;;;22.92;34.80
65384;BME280;51986;52.788;41.368;2023-07-13T11:25:44;98740.41;;;22.92;34.68
65384;BME280;51986;52.788;41.368;2023-07-13T11:33:22;98721.53;;;23.42;34.17
65384;BME280;51986;52.788;41.368;2023-07-13T11:38:30;98709.34;;;23.13;35.29
65384;BME280;51986;52.788;41.368;2023-07-13T11:41:02;98715.69;;;23.16;35.08
65384;BME280;51986;52.788;41.368;2023-07-13T11:43:30;98690.44;;;23.41;35.41
65384;BME280;51986;52.788;41.368;2023-07-13T11:45:57;98698.81;;;23.21;37.01
65384;BME280;51986;52.788;41.368;2023-07-13T11:48:28;98724.75;;;23.24;36.37
65384;BME280;51986;52.788;41.368;2023-07-13T11:51:00;98708.38;;;22.99;36.71
65384;BME280;51986;52.788;41.368;2023-07-13T11:53:44;98680.25;;;22.67;36.80
65384;BME280;51986;52.788;41.368;2023-07-13T11:56:12;98706.16;;;22.98;36.36
65384;BME280;51986;52.788;41.368;2023-07-13T11:58:41;98695.66;;;23.00;36.55
65384;BME280;51986;52.788;41.368;2023-07-13T12:01:31;98683.66;;;23.06;35.55
65384;BME280;51986;52.788;41.368;2023-07-13T12:04:01;98694.22;;;22.99;35.15
65384;BME280;51986;52.788;41.368;2023-07-13T12:06:29;98680.72;;;23.27;35.47
65384;BME280;51986;52.788;41.368;2023-07-13T12:09:02;98685.59;;;23.28;35.56
65384;BME280;51986;52.788;41.368;2023-07-13T12:11:30;98696.13;;;23.32;35.35
65384;BME280;51986;52.788;41.368;2023-07-13T12:14:03;98684.66;;;23.09;35.42
65384;BME280;51986;52.788;41.368;2023-07-13T12:16:32;98678.56;;;23.03;35.98
65384;BME280;51986;52.788;41.368;2023-07-13T12:19:00;98679.78;;;22.85;36.51
65384;BME280;51986;52.788;41.368;2023-07-13T12:21:33;98676.31;;;22.23;37.62
65384;BME280;51986;52.788;41.368;2023-07-13T12:24:01;98672.09;;;22.05;37.56
65384;BME280;51986;52.788;41.368;2023-07-13T12:26:29;98627.66;;;21.93;37.64
65384;BME280;51986;52.788;41.368;2023-07-13T12:29:00;98700.06;;;21.70;37.96
65384;BME280;51986;52.788;41.368;2023-07-13T12:31:36;98707.72;;;21.40;38.14
65384;BME280;51986;52.788;41.368;2023-07-13T12:36:45;98679.03;;;21.20;38.97
65384;BME280;51986;52.788;41.368;2023-07-13T12:39:25;98697.34;;;21.22;39.26
65384;BME280;51986;52.788;41.368;2023-07-13T12:41:53;98707.50;;;21.12;39.19
65384;BME280;51986;52.788;41.368;2023-07-13T12:44:30;98711.47;;;21.22;38.95
65384;BME280;51986;52.788;41.368;2023-07-13T12:47:04;98708.34;;;21.29;38.92
65384;BME280;51986;52.788;41.368;2023-07-13T12:49:33;98695.75;;;21.04;40.45
65384;BME280;51986;52.788;41.368;2023-07-13T12:52:02;98702.84;;;21.07;39.90
65384;BME280;51986;52.788;41.368;2023-07-13T12:54:30;98685.19;;;20.95;39.13
65384;BME280;51986;52.788;41.368;2023-07-13T12:56:59;98688.03;;;20.80;39.09
65384;BME280;51986;52.788;41.368;2023-07-13T12:59:30;98708.03;;;20.85;38.97
65384;BME280;51986;52.788;41.368;2023-07-13T13:01:58;98709.28;;;20.89;39.20
65384;BME280;51986;52.788;41.368;2023-07-13T13:04:26;98710.09;;;21.01;40.01
65384;BME280;51986;52.788;41.368;2023-07-13T13:07:05;98694.06;;;21.07;40.12
65384;BME280;51986;52.788;41.368;2023-07-13T13:09:32;98702.59;;;21.11;39.70
65384;BME280;51986;52.788;41.368;2023-07-13T13:11:59;98698.78;;;21.17;39.80
65384;BME280;51986;52.788;41.368;2023-07-13T13:14:26;98702.69;;;21.22;39.57
65384;BME280;51986;52.788;41.368;2023-07-13T13:16:53;98716.06;;;21.16;39.72
65384;BME280;51986;52.788;41.368;2023-07-13T13:19:24;98717.22;;;21.10;39.05
65384;BME280;51986;52.788;41.368;2023-07-13T13:21:53;98719.06;;;21.29;39.25
65384;BME280;51986;52.788;41.368;2023-07-13T13:24:22;98723.44;;;21.21;39.31
65384;BME280;51986;52.788;41.368;2023-07-13T13:26:51;98743.09;;;21.13;39.87
65384;BME280;51986;52.788;41.368;2023-07-13T13:29:23;98720.81;;;21.33;39.81
65384;BME280;51986;52.788;41.368;2023-07-13T13:31:52;98733.38;;;21.52;39.83
65384;BME280;51986;52.788;41.368;2023-07-13T13:34:21;98743.25;;;21.35;39.47
65384;BME280;51986;52.788;41.368;2023-07-13T13:36:48;98742.63;;;21.46;39.81